sensor_id;sensor_type;location;lat;lon;timestamp;temperature;humidity
6270;DHT22;3168;51.684;6.954;2023-04-24T00:01:00;11.20;1.00
6270;DHT22;3168;51.684;6.954;2023-04-24T00:03:26;11.30;1.00
6270;DHT22;3168;51.684;6.954;2023-04-24T00:05:52;11.20;1.00
6270;DHT22;3168;51.684;6.954;2023-04-24T00:08:18;11.20;1.00
6270;DHT22;3168;51.684;6.954;2023-04-24T00:10:43;11.30;1.00
6270;DHT22;3168;51.684;6.954;2023-04-24T00:13:09;11.30;1.00
6270;DHT22;3168;51.684;6.954;2023-04-24T00:15:35;11.30;1.00
6270;DHT22;3168;51.684;6.954;2023-04-24T00:18:01;11.30;1.00
6270;DHT22;3168;51.684;6.954;2023-04-24T00:20:27;11.30;1.00
6270;DHT22;3168;51.684;6.954;2023-04-24T00:22:52;11.40;1.00
6270;DHT22;3168;51.684;6.954;2023-04-24T00:25:18;11.40;1.00
6270;DHT22;3168;51.684;6.954;2023-04-24T00:27:44;11.30;1.00
6270;DHT22;3168;51.684;6.954;2023-04-24T00:30:10;11.40;1.00
6270;DHT22;3168;51.684;6.954;2023-04-24T00:32:36;11.30;1.00
6270;DHT22;3168;51.684;6.954;2023-04-24T00:35:02;11.30;1.00
6270;DHT22;3168;51.684;6.954;2023-04-24T00:37:28;11.30;1.00
6270;DHT22;3168;51.684;6.954;2023-04-24T00:39:55;11.30;1.00
6270;DHT22;3168;51.684;6.954;2023-04-24T00:42:20;11.20;1.00
6270;DHT22;3168;51.684;6.954;2023-04-24T00:44:46;11.20;1.00
6270;DHT22;3168;51.684;6.954;2023-04-24T00:47:12;11.20;1.00
6270;DHT22;3168;51.684;6.954;2023-04-24T00:49:38;11.20;1.00
6270;DHT22;3168;51.684;6.954;2023-04-24T00:52:04;11.10;1.00
6270;DHT22;3168;51.684;6.954;2023-04-24T00:54:29;11.10;1.00
6270;DHT22;3168;51.684;6.954;2023-04-24T00:56:55;11.10;1.00
6270;DHT22;3168;51.684;6.954;2023-04-24T00:59:21;11.10;1.00
6270;DHT22;3168;51.684;6.954;2023-04-24T01:01:47;11.00;1.00
6270;DHT22;3168;51.684;6.954;2023-04-24T01:04:13;11.00;1.00
6270;DHT22;3168;51.684;6.954;2023-04-24T01:06:39;11.00;1.00
6270;DHT22;3168;51.684;6.954;2023-04-24T01:09:05;11.00;1.00
6270;DHT22;3168;51.684;6.954;2023-04-24T01:11:30;11.00;1.00
6270;DHT22;3168;51.684;6.954;2023-04-24T01:13:57;10.90;1.00
6270;DHT22;3168;51.684;6.954;2023-04-24T01:16:23;10.90;1.00
6270;DHT22;3168;51.684;6.954;2023-04-24T01:18:49;10.80;1.00
6270;DHT22;3168;51.684;6.954;2023-04-24T01:21:15;10.80;1.00
6270;DHT22;3168;51.684;6.954;2023-04-24T01:23:40;10.70;1.00
6270;DHT22;3168;51.684;6.954;2023-04-24T01:26:06;10.70;1.00
6270;DHT22;3168;51.684;6.954;2023-04-24T01:28:32;10.70;1.00
6270;DHT22;3168;51.684;6.954;2023-04-24T01:30:58;10.60;1.00
6270;DHT22;3168;51.684;6.954;2023-04-24T01:33:23;10.70;1.00
6270;DHT22;3168;51.684;6.954;2023-04-24T01:35:49;10.60;1.00
6270;DHT22;3168;51.684;6.954;2023-04-24T01:38:15;10.50;1.00
6270;DHT22;3168;51.684;6.954;2023-04-24T01:40:41;10.50;1.00
6270;DHT22;3168;51.684;6.954;2023-04-24T01:43:07;10.50;1.00
6270;DHT22;3168;51.684;6.954;2023-04-24T01:45:33;10.50;1.00
6270;DHT22;3168;51.684;6.954;2023-04-24T01:47:59;10.50;1.00
6270;DHT22;3168;51.684;6.954;2023-04-24T01:50:24;10.50;1.00
6270;DHT22;3168;51.684;6.954;2023-04-24T01:52:50;10.50;1.00
6270;DHT22;3168;51.684;6.954;2023-04-24T01:55:16;10.40;1.00
6270;DHT22;3168;51.684;6.954;2023-04-24T01:57:43;10.40;1.00
6270;DHT22;3168;51.684;6.954;2023-04-24T02:00:16;10.40;1.00
6270;DHT22;3168;51.684;6.954;2023-04-24T02:02:41;10.30;1.00
6270;DHT22;3168;51.684;6.954;2023-04-24T02:05:08;10.40;1.00
6270;DHT22;3168;51.684;6.954;2023-04-24T02:07:34;10.40;1.00
6270;DHT22;3168;51.684;6.954;2023-04-24T02:10:00;10.30;1.00
6270;DHT22;3168;51.684;6.954;2023-04-24T02:12:25;10.30;1.00
6270;DHT22;3168;51.684;6.954;2023-04-24T02:14:51;10.30;1.00
6270;DHT22;3168;51.684;6.954;2023-04-24T02:17:18;10.30;1.00
6270;DHT22;3168;51.684;6.954;2023-04-24T02:19:44;10.20;1.00
6270;DHT22;3168;51.684;6.954;2023-04-24T02:22:09;10.20;1.00
6270;DHT22;3168;51.684;6.954;2023-04-24T02:24:35;10.30;1.00
6270;DHT22;3168;51.684;6.954;2023-04-24T02:27:01;10.20;1.00
6270;DHT22;3168;51.684;6.954;2023-04-24T02:29:27;10.20;1.00
6270;DHT22;3168;51.684;6.954;2023-04-24T02:31:52;10.20;1.00
6270;DHT22;3168;51.684;6.954;2023-04-24T02:34:18;10.20;1.00
6270;DHT22;3168;51.684;6.954;2023-04-24T02:36:44;10.20;1.00
6270;DHT22;3168;51.684;6.954;2023-04-24T02:39:10;10.20;1.00
6270;DHT22;3168;51.684;6.954;2023-04-24T02:41:36;10.20;1.00
6270;DHT22;3168;51.684;6.954;2023-04-24T02:44:02;10.20;1.00
6270;DHT22;3168;51.684;6.954;2023-04-24T02:46:27;10.10;1.00
6270;DHT22;3168;51.684;6.954;2023-04-24T02:48:53;10.10;1.00
6270;DHT22;3168;51.684;6.954;2023-04-24T02:51:19;10.00;1.00
6270;DHT22;3168;51.684;6.954;2023-04-24T02:53:45;10.00;1.00
6270;DHT22;3168;51.684;6.954;2023-04-24T02:56:11;10.00;1.00
6270;DHT22;3168;51.684;6.954;2023-04-24T02:58:38;10.00;1.00
6270;DHT22;3168;51.684;6.954;2023-04-24T03:01:04;10.00;1.00
6270;DHT22;3168;51.684;6.954;2023-04-24T03:03:31;10.10;1.00
6270;DHT22;3168;51.684;6.954;2023-04-24T03:05:56;10.10;1.00
6270;DHT22;3168;51.684;6.954;2023-04-24T03:08:22;10.10;1.00
6270;DHT22;3168;51.684;6.954;2023-04-24T03:10:48;10.10;1.00
6270;DHT22;3168;51.684;6.954;2023-04-24T03:13:14;10.00;1.00
6270;DHT22;3168;51.684;6.954;2023-04-24T03:15:40;10.00;1.00
6270;DHT22;3168;51.684;6.954;2023-04-24T03:18:05;10.00;1.00
6270;DHT22;3168;51.684;6.954;2023-04-24T03:20:31;10.10;1.00
6270;DHT22;3168;51.684;6.954;2023-04-24T03:22:57;10.00;1.00
6270;DHT22;3168;51.684;6.954;2023-04-24T03:25:23;10.10;1.00
6270;DHT22;3168;51.684;6.954;2023-04-24T03:27:48;10.10;1.00
6270;DHT22;3168;51.684;6.954;2023-04-24T03:30:15;10.00;1.00
6270;DHT22;3168;51.684;6.954;2023-04-24T03:32:41;10.00;1.00
6270;DHT22;3168;51.684;6.954;2023-04-24T03:35:07;10.00;1.00
6270;DHT22;3168;51.684;6.954;2023-04-24T03:37:34;10.10;1.00
6270;DHT22;3168;51.684;6.954;2023-04-24T03:40:01;10.00;1.00
6270;DHT22;3168;51.684;6.954;2023-04-24T03:42:26;10.10;1.00
6270;DHT22;3168;51.684;6.954;2023-04-24T03:44:52;10.00;1.00
6270;DHT22;3168;51.684;6.954;2023-04-24T03:47:18;10.00;1.00
6270;DHT22;3168;51.684;6.954;2023-04-24T03:49:44;10.10;1.00
6270;DHT22;3168;51.684;6.954;2023-04-24T03:52:10;10.10;1.00
6270;DHT22;3168;51.684;6.954;2023-04-24T03:54:36;10.00;1.00
6270;DHT22;3168;51.684;6.954;2023-04-24T03:57:01;9.90;1.00
6270;DHT22;3168;51.684;6.954;2023-04-24T03:59:27;9.90;1.00
6270;DHT22;3168;51.684;6.954;2023-04-24T04:01:54;9.80;1.00
6270;DHT22;3168;51.684;6.954;2023-04-24T04:04:19;9.70;1.00
6270;DHT22;3168;51.684;6.954;2023-04-24T04:06:45;9.80;1.00
6270;DHT22;3168;51.684;6.954;2023-04-24T04:09:11;9.80;1.00
6270;DHT22;3168;51.684;6.954;2023-04-24T04:11:38;9.80;1.00
6270;DHT22;3168;51.684;6.954;2023-04-24T04:14:03;9.80;1.00
6270;DHT22;3168;51.684;6.954;2023-04-24T04:16:29;9.90;1.00
6270;DHT22;3168;51.684;6.954;2023-04-24T04:18:55;9.90;1.00
6270;DHT22;3168;51.684;6.954;2023-04-24T04:21:21;9.90;1.00
6270;DHT22;3168;51.684;6.954;2023-04-24T04:23:47;9.90;1.00
6270;DHT22;3168;51.684;6.954;2023-04-24T04:26:12;9.90;1.00
6270;DHT22;3168;51.684;6.954;2023-04-24T04:28:38;9.90;1.00
6270;DHT22;3168;51.684;6.954;2023-04-24T04:31:04;9.90;1.00
6270;DHT22;3168;51.684;6.954;2023-04-24T04:33:30;9.90;1.00
6270;DHT22;3168;51.684;6.954;2023-04-24T04:35:56;9.90;1.00
6270;DHT22;3168;51.684;6.954;2023-04-24T04:38:22;9.90;1.00
6270;DHT22;3168;51.684;6.954;2023-04-24T04:40:48;9.90;1.00
6270;DHT22;3168;51.684;6.954;2023-04-24T04:43:13;9.90;1.00
6270;DHT22;3168;51.684;6.954;2023-04-24T04:45:40;9.90;1.00
6270;DHT22;3168;51.684;6.954;2023-04-24T04:48:06;9.90;1.00
6270;DHT22;3168;51.684;6.954;2023-04-24T04:50:32;9.90;1.00
6270;DHT22;3168;51.684;6.954;2023-04-24T04:52:59;9.90;1.00
6270;DHT22;3168;51.684;6.954;2023-04-24T04:55:24;9.90;1.00
6270;DHT22;3168;51.684;6.954;2023-04-24T04:57:50;9.90;1.00
6270;DHT22;3168;51.684;6.954;2023-04-24T05:00:16;9.90;1.00
6270;DHT22;3168;51.684;6.954;2023-04-24T05:02:42;9.90;1.00
6270;DHT22;3168;51.684;6.954;2023-04-24T05:05:08;9.90;1.00
6270;DHT22;3168;51.684;6.954;2023-04-24T05:07:34;9.90;1.00
6270;DHT22;3168;51.684;6.954;2023-04-24T05:10:00;9.90;1.00
6270;DHT22;3168;51.684;6.954;2023-04-24T05:12:26;9.90;1.00
6270;DHT22;3168;51.684;6.954;2023-04-24T05:14:51;9.90;1.00
6270;DHT22;3168;51.684;6.954;2023-04-24T05:17:17;10.00;1.00
6270;DHT22;3168;51.684;6.954;2023-04-24T05:19:43;9.90;1.00
6270;DHT22;3168;51.684;6.954;2023-04-24T05:22:09;9.90;1.00
6270;DHT22;3168;51.684;6.954;2023-04-24T05:24:35;9.90;1.00
6270;DHT22;3168;51.684;6.954;2023-04-24T05:27:01;10.00;1.00
6270;DHT22;3168;51.684;6.954;2023-04-24T05:29:26;9.90;1.00
6270;DHT22;3168;51.684;6.954;2023-04-24T05:31:52;9.90;1.00
6270;DHT22;3168;51.684;6.954;2023-04-24T05:34:18;9.80;1.00
6270;DHT22;3168;51.684;6.954;2023-04-24T05:36:44;9.80;1.00
6270;DHT22;3168;51.684;6.954;2023-04-24T05:39:10;9.70;1.00
6270;DHT22;3168;51.684;6.954;2023-04-24T05:41:35;9.80;1.00
6270;DHT22;3168;51.684;6.954;2023-04-24T05:44:01;9.80;1.00
6270;DHT22;3168;51.684;6.954;2023-04-24T05:46:27;9.90;1.00
6270;DHT22;3168;51.684;6.954;2023-04-24T05:48:53;9.80;1.00
6270;DHT22;3168;51.684;6.954;2023-04-24T05:51:19;9.70;1.00
6270;DHT22;3168;51.684;6.954;2023-04-24T05:53:44;9.60;1.00
6270;DHT22;3168;51.684;6.954;2023-04-24T05:56:10;9.60;1.00
6270;DHT22;3168;51.684;6.954;2023-04-24T05:58:36;9.50;1.00
6270;DHT22;3168;51.684;6.954;2023-04-24T06:01:03;9.40;1.00
6270;DHT22;3168;51.684;6.954;2023-04-24T06:03:29;9.50;1.00
6270;DHT22;3168;51.684;6.954;2023-04-24T06:05:55;9.60;1.00
6270;DHT22;3168;51.684;6.954;2023-04-24T06:08:20;9.50;1.00
6270;DHT22;3168;51.684;6.954;2023-04-24T06:10:46;9.50;1.00
6270;DHT22;3168;51.684;6.954;2023-04-24T06:13:12;9.60;1.00
6270;DHT22;3168;51.684;6.954;2023-04-24T06:15:38;9.60;1.00
6270;DHT22;3168;51.684;6.954;2023-04-24T06:18:04;9.60;1.00
6270;DHT22;3168;51.684;6.954;2023-04-24T06:20:30;9.70;1.00
6270;DHT22;3168;51.684;6.954;2023-04-24T06:22:56;9.70;1.00
6270;DHT22;3168;51.684;6.954;2023-04-24T06:25:22;9.70;1.00
6270;DHT22;3168;51.684;6.954;2023-04-24T06:27:47;9.70;1.00
6270;DHT22;3168;51.684;6.954;2023-04-24T06:30:13;9.60;1.00
6270;DHT22;3168;51.684;6.954;2023-04-24T06:32:39;9.50;1.00
6270;DHT22;3168;51.684;6.954;2023-04-24T06:35:06;9.50;1.00
6270;DHT22;3168;51.684;6.954;2023-04-24T06:37:31;9.40;1.00
6270;DHT22;3168;51.684;6.954;2023-04-24T06:39:58;9.30;1.00
6270;DHT22;3168;51.684;6.954;2023-04-24T06:42:24;9.30;1.00
6270;DHT22;3168;51.684;6.954;2023-04-24T06:44:50;9.30;1.00
6270;DHT22;3168;51.684;6.954;2023-04-24T06:47:16;9.20;1.00
6270;DHT22;3168;51.684;6.954;2023-04-24T06:49:41;9.20;1.00
6270;DHT22;3168;51.684;6.954;2023-04-24T06:52:07;9.30;1.00
6270;DHT22;3168;51.684;6.954;2023-04-24T06:54:33;9.40;1.00
6270;DHT22;3168;51.684;6.954;2023-04-24T06:56:59;9.40;1.00
6270;DHT22;3168;51.684;6.954;2023-04-24T06:59:25;9.50;1.00
6270;DHT22;3168;51.684;6.954;2023-04-24T07:01:51;9.40;1.00
6270;DHT22;3168;51.684;6.954;2023-04-24T07:04:17;9.30;1.00
6270;DHT22;3168;51.684;6.954;2023-04-24T07:06:42;9.40;1.00
6270;DHT22;3168;51.684;6.954;2023-04-24T07:09:08;9.40;1.00
6270;DHT22;3168;51.684;6.954;2023-04-24T07:11:35;9.40;1.00
6270;DHT22;3168;51.684;6.954;2023-04-24T07:14:00;9.40;1.00
6270;DHT22;3168;51.684;6.954;2023-04-24T07:16:27;9.50;1.00
6270;DHT22;3168;51.684;6.954;2023-04-24T07:18:53;9.40;1.00
6270;DHT22;3168;51.684;6.954;2023-04-24T07:21:19;9.40;1.00
6270;DHT22;3168;51.684;6.954;2023-04-24T07:23:45;9.40;1.00
6270;DHT22;3168;51.684;6.954;2023-04-24T07:26:11;9.40;1.00
6270;DHT22;3168;51.684;6.954;2023-04-24T07:28:37;9.30;1.00
6270;DHT22;3168;51.684;6.954;2023-04-24T07:31:03;9.50;1.00
6270;DHT22;3168;51.684;6.954;2023-04-24T07:33:29;9.50;1.00
6270;DHT22;3168;51.684;6.954;2023-04-24T07:35:55;9.50;1.00
6270;DHT22;3168;51.684;6.954;2023-04-24T07:38:21;9.60;1.00
6270;DHT22;3168;51.684;6.954;2023-04-24T07:40:47;9.50;1.00
6270;DHT22;3168;51.684;6.954;2023-04-24T07:43:12;9.40;1.00
6270;DHT22;3168;51.684;6.954;2023-04-24T07:45:38;9.30;1.00
6270;DHT22;3168;51.684;6.954;2023-04-24T07:48:04;9.20;1.00
6270;DHT22;3168;51.684;6.954;2023-04-24T07:50:30;9.10;1.00
6270;DHT22;3168;51.684;6.954;2023-04-24T07:52:56;9.10;1.00
6270;DHT22;3168;51.684;6.954;2023-04-24T07:55:22;9.10;1.00
6270;DHT22;3168;51.684;6.954;2023-04-24T07:57:47;9.10;1.00
6270;DHT22;3168;51.684;6.954;2023-04-24T08:00:14;9.10;1.00
6270;DHT22;3168;51.684;6.954;2023-04-24T08:02:40;9.10;1.00
6270;DHT22;3168;51.684;6.954;2023-04-24T08:05:06;9.10;1.00
6270;DHT22;3168;51.684;6.954;2023-04-24T08:07:32;9.00;1.00
6270;DHT22;3168;51.684;6.954;2023-04-24T08:09:58;9.00;1.00
6270;DHT22;3168;51.684;6.954;2023-04-24T08:12:23;8.90;1.00
6270;DHT22;3168;51.684;6.954;2023-04-24T08:14:49;8.90;1.00
6270;DHT22;3168;51.684;6.954;2023-04-24T08:17:16;8.90;1.00
6270;DHT22;3168;51.684;6.954;2023-04-24T08:19:41;8.90;1.00
6270;DHT22;3168;51.684;6.954;2023-04-24T08:22:08;8.90;1.00
6270;DHT22;3168;51.684;6.954;2023-04-24T08:24:34;8.90;1.00
6270;DHT22;3168;51.684;6.954;2023-04-24T08:26:59;8.90;1.00
6270;DHT22;3168;51.684;6.954;2023-04-24T08:29:25;9.00;1.00
6270;DHT22;3168;51.684;6.954;2023-04-24T08:31:52;9.00;1.00
6270;DHT22;3168;51.684;6.954;2023-04-24T08:34:18;9.00;1.00
6270;DHT22;3168;51.684;6.954;2023-04-24T08:36:43;9.10;1.00
6270;DHT22;3168;51.684;6.954;2023-04-24T08:39:09;8.90;1.00
6270;DHT22;3168;51.684;6.954;2023-04-24T08:41:36;8.80;1.00
6270;DHT22;3168;51.684;6.954;2023-04-24T08:44:02;8.80;1.00
6270;DHT22;3168;51.684;6.954;2023-04-24T08:46:28;8.80;3.20
6270;DHT22;3168;51.684;6.954;2023-04-24T08:48:53;8.90;9.20
6270;DHT22;3168;51.684;6.954;2023-04-24T08:51:19;8.90;9.10
6270;DHT22;3168;51.684;6.954;2023-04-24T08:53:45;8.90;9.60
6270;DHT22;3168;51.684;6.954;2023-04-24T08:56:11;9.00;12.90
6270;DHT22;3168;51.684;6.954;2023-04-24T08:58:36;8.90;14.40
6270;DHT22;3168;51.684;6.954;2023-04-24T09:01:02;9.00;17.40
6270;DHT22;3168;51.684;6.954;2023-04-24T09:03:29;9.00;21.60
6270;DHT22;3168;51.684;6.954;2023-04-24T09:05:54;9.10;26.90
6270;DHT22;3168;51.684;6.954;2023-04-24T09:08:20;9.10;25.10
6270;DHT22;3168;51.684;6.954;2023-04-24T09:10:46;9.20;28.90
6270;DHT22;3168;51.684;6.954;2023-04-24T09:13:11;9.20;29.00
6270;DHT22;3168;51.684;6.954;2023-04-24T09:15:37;9.30;30.70
6270;DHT22;3168;51.684;6.954;2023-04-24T09:18:04;9.40;33.60
6270;DHT22;3168;51.684;6.954;2023-04-24T09:20:29;9.30;30.90
6270;DHT22;3168;51.684;6.954;2023-04-24T09:22:57;9.30;38.40
6270;DHT22;3168;51.684;6.954;2023-04-24T09:25:23;9.30;38.50
6270;DHT22;3168;51.684;6.954;2023-04-24T09:27:48;9.10;31.00
6270;DHT22;3168;51.684;6.954;2023-04-24T09:30:14;9.10;33.20
6270;DHT22;3168;51.684;6.954;2023-04-24T09:32:40;9.00;31.00
6270;DHT22;3168;51.684;6.954;2023-04-24T09:35:07;8.90;25.00
6270;DHT22;3168;51.684;6.954;2023-04-24T09:37:34;8.80;16.00
6270;DHT22;3168;51.684;6.954;2023-04-24T09:40:09;8.70;9.10
6270;DHT22;3168;51.684;6.954;2023-04-24T09:42:34;8.70;14.10
6270;DHT22;3168;51.684;6.954;2023-04-24T09:44:59;8.70;9.40
6270;DHT22;3168;51.684;6.954;2023-04-24T09:47:25;8.60;11.10
6270;DHT22;3168;51.684;6.954;2023-04-24T09:49:51;8.70;13.20
6270;DHT22;3168;51.684;6.954;2023-04-24T09:52:17;8.60;8.60
6270;DHT22;3168;51.684;6.954;2023-04-24T09:54:43;8.60;14.30
6270;DHT22;3168;51.684;6.954;2023-04-24T09:57:09;8.60;20.90
6270;DHT22;3168;51.684;6.954;2023-04-24T09:59:35;8.50;22.00
6270;DHT22;3168;51.684;6.954;2023-04-24T10:02:01;8.50;22.10
6270;DHT22;3168;51.684;6.954;2023-04-24T10:04:27;8.50;25.30
6270;DHT22;3168;51.684;6.954;2023-04-24T10:06:55;8.50;22.10
6270;DHT22;3168;51.684;6.954;2023-04-24T10:09:20;8.50;22.20
6270;DHT22;3168;51.684;6.954;2023-04-24T10:11:46;8.50;22.90
6270;DHT22;3168;51.684;6.954;2023-04-24T10:14:15;8.60;28.10
6270;DHT22;3168;51.684;6.954;2023-04-24T10:16:40;8.60;24.90
6270;DHT22;3168;51.684;6.954;2023-04-24T10:19:06;8.60;24.80
6270;DHT22;3168;51.684;6.954;2023-04-24T10:21:32;8.50;25.30
6270;DHT22;3168;51.684;6.954;2023-04-24T10:23:58;8.60;32.10
6270;DHT22;3168;51.684;6.954;2023-04-24T10:26:24;8.60;37.70
6270;DHT22;3168;51.684;6.954;2023-04-24T10:28:50;8.60;37.70
6270;DHT22;3168;51.684;6.954;2023-04-24T10:31:16;8.60;37.20
6270;DHT22;3168;51.684;6.954;2023-04-24T10:33:42;8.60;32.90
6270;DHT22;3168;51.684;6.954;2023-04-24T10:36:09;8.70;30.60
6270;DHT22;3168;51.684;6.954;2023-04-24T10:38:35;8.60;20.40
6270;DHT22;3168;51.684;6.954;2023-04-24T10:41:08;8.60;9.20
6270;DHT22;3168;51.684;6.954;2023-04-24T10:43:33;8.60;18.30
6270;DHT22;3168;51.684;6.954;2023-04-24T10:46:01;8.60;13.40
6270;DHT22;3168;51.684;6.954;2023-04-24T10:48:26;8.60;17.30
6270;DHT22;3168;51.684;6.954;2023-04-24T10:50:52;8.70;19.90
6270;DHT22;3168;51.684;6.954;2023-04-24T10:53:20;8.80;23.60
6270;DHT22;3168;51.684;6.954;2023-04-24T10:55:49;8.70;16.00
6270;DHT22;3168;51.684;6.954;2023-04-24T10:58:13;8.70;12.90
6270;DHT22;3168;51.684;6.954;2023-04-24T11:00:40;8.60;13.90
6270;DHT22;3168;51.684;6.954;2023-04-24T11:03:23;8.60;11.60
6270;DHT22;3168;51.684;6.954;2023-04-24T11:05:56;8.50;8.90
6270;DHT22;3168;51.684;6.954;2023-04-24T11:08:22;8.50;8.70
6270;DHT22;3168;51.684;6.954;2023-04-24T11:10:47;8.50;9.00
6270;DHT22;3168;51.684;6.954;2023-04-24T11:13:15;8.40;9.20
6270;DHT22;3168;51.684;6.954;2023-04-24T11:15:41;8.50;13.60
6270;DHT22;3168;51.684;6.954;2023-04-24T11:18:07;8.40;12.10
6270;DHT22;3168;51.684;6.954;2023-04-24T11:20:33;8.50;14.60
6270;DHT22;3168;51.684;6.954;2023-04-24T11:23:03;8.70;19.30
6270;DHT22;3168;51.684;6.954;2023-04-24T11:25:24;8.90;18.80
6270;DHT22;3168;51.684;6.954;2023-04-24T11:27:50;9.00;17.10
6270;DHT22;3168;51.684;6.954;2023-04-24T11:30:17;9.10;10.30
6270;DHT22;3168;51.684;6.954;2023-04-24T11:32:43;9.30;5.10
6270;DHT22;3168;51.684;6.954;2023-04-24T11:35:14;9.30;1.00
6270;DHT22;3168;51.684;6.954;2023-04-24T11:37:37;9.40;1.00
6270;DHT22;3168;51.684;6.954;2023-04-24T11:40:03;9.40;1.00
6270;DHT22;3168;51.684;6.954;2023-04-24T11:42:29;9.50;1.00
6270;DHT22;3168;51.684;6.954;2023-04-24T11:44:55;9.70;1.00
6270;DHT22;3168;51.684;6.954;2023-04-24T11:47:28;9.70;1.00
6270;DHT22;3168;51.684;6.954;2023-04-24T11:49:53;9.90;1.00
6270;DHT22;3168;51.684;6.954;2023-04-24T11:52:19;9.90;1.00
6270;DHT22;3168;51.684;6.954;2023-04-24T11:54:47;10.10;1.00
6270;DHT22;3168;51.684;6.954;2023-04-24T11:57:12;9.90;1.00
6270;DHT22;3168;51.684;6.954;2023-04-24T11:59:38;9.80;1.00
6270;DHT22;3168;51.684;6.954;2023-04-24T12:02:03;9.80;1.00
6270;DHT22;3168;51.684;6.954;2023-04-24T12:04:37;9.80;1.00
6270;DHT22;3168;51.684;6.954;2023-04-24T12:06:58;9.80;1.00
6270;DHT22;3168;51.684;6.954;2023-04-24T12:09:24;9.80;1.00
6270;DHT22;3168;51.684;6.954;2023-04-24T12:11:52;9.70;1.00
6270;DHT22;3168;51.684;6.954;2023-04-24T12:14:17;9.80;1.00
6270;DHT22;3168;51.684;6.954;2023-04-24T12:16:47;9.80;1.00
6270;DHT22;3168;51.684;6.954;2023-04-24T12:19:09;9.70;1.00
6270;DHT22;3168;51.684;6.954;2023-04-24T12:21:35;9.70;1.00
6270;DHT22;3168;51.684;6.954;2023-04-24T12:24:01;9.70;1.00
6270;DHT22;3168;51.684;6.954;2023-04-24T12:26:27;9.70;1.00
6270;DHT22;3168;51.684;6.954;2023-04-24T12:28:52;9.80;1.00
6270;DHT22;3168;51.684;6.954;2023-04-24T12:31:20;10.10;1.00
6270;DHT22;3168;51.684;6.954;2023-04-24T12:33:45;10.00;1.00
6270;DHT22;3168;51.684;6.954;2023-04-24T12:36:11;10.00;1.00
6270;DHT22;3168;51.684;6.954;2023-04-24T12:38:37;9.90;1.00
6270;DHT22;3168;51.684;6.954;2023-04-24T12:41:03;9.90;1.00
6270;DHT22;3168;51.684;6.954;2023-04-24T12:43:29;10.00;1.00
6270;DHT22;3168;51.684;6.954;2023-04-24T12:45:55;10.00;1.00
6270;DHT22;3168;51.684;6.954;2023-04-24T12:48:21;10.00;1.00
6270;DHT22;3168;51.684;6.954;2023-04-24T12:50:47;10.10;1.00
6270;DHT22;3168;51.684;6.954;2023-04-24T12:53:13;10.10;1.00
6270;DHT22;3168;51.684;6.954;2023-04-24T12:55:39;10.30;1.00
6270;DHT22;3168;51.684;6.954;2023-04-24T12:58:05;10.40;1.00
6270;DHT22;3168;51.684;6.954;2023-04-24T13:00:32;10.60;1.00
6270;DHT22;3168;51.684;6.954;2023-04-24T13:02:57;10.50;1.00
6270;DHT22;3168;51.684;6.954;2023-04-24T13:05:23;10.60;1.00
6270;DHT22;3168;51.684;6.954;2023-04-24T13:07:49;10.60;1.00
6270;DHT22;3168;51.684;6.954;2023-04-24T13:10:15;10.60;1.00
6270;DHT22;3168;51.684;6.954;2023-04-24T13:12:41;10.30;1.00
6270;DHT22;3168;51.684;6.954;2023-04-24T13:15:08;10.30;1.00
6270;DHT22;3168;51.684;6.954;2023-04-24T13:17:33;10.00;1.00
6270;DHT22;3168;51.684;6.954;2023-04-24T13:20:00;9.80;1.00
6270;DHT22;3168;51.684;6.954;2023-04-24T13:22:26;9.80;1.00
6270;DHT22;3168;51.684;6.954;2023-04-24T13:24:52;9.80;1.00
6270;DHT22;3168;51.684;6.954;2023-04-24T13:27:18;9.90;1.00
6270;DHT22;3168;51.684;6.954;2023-04-24T13:29:44;10.10;1.00
6270;DHT22;3168;51.684;6.954;2023-04-24T13:32:10;10.60;1.00
6270;DHT22;3168;51.684;6.954;2023-04-24T13:34:36;10.70;1.00
6270;DHT22;3168;51.684;6.954;2023-04-24T13:37:02;10.80;1.00
6270;DHT22;3168;51.684;6.954;2023-04-24T13:39:28;11.20;1.00
6270;DHT22;3168;51.684;6.954;2023-04-24T13:41:54;11.40;1.00
6270;DHT22;3168;51.684;6.954;2023-04-24T13:44:20;11.50;1.00
6270;DHT22;3168;51.684;6.954;2023-04-24T13:46:46;11.00;1.00
6270;DHT22;3168;51.684;6.954;2023-04-24T13:49:12;10.60;1.00
6270;DHT22;3168;51.684;6.954;2023-04-24T13:51:38;10.40;1.00
6270;DHT22;3168;51.684;6.954;2023-04-24T13:54:04;10.40;1.00
6270;DHT22;3168;51.684;6.954;2023-04-24T13:56:30;10.30;1.00
6270;DHT22;3168;51.684;6.954;2023-04-24T13:58:56;10.20;1.00
6270;DHT22;3168;51.684;6.954;2023-04-24T14:01:22;10.20;1.00
6270;DHT22;3168;51.684;6.954;2023-04-24T14:03:47;10.10;1.00
6270;DHT22;3168;51.684;6.954;2023-04-24T14:06:13;10.30;1.00
6270;DHT22;3168;51.684;6.954;2023-04-24T14:08:39;10.50;1.00
6270;DHT22;3168;51.684;6.954;2023-04-24T14:11:05;10.60;1.00
6270;DHT22;3168;51.684;6.954;2023-04-24T14:13:31;10.60;1.00
6270;DHT22;3168;51.684;6.954;2023-04-24T14:15:57;10.70;1.00
6270;DHT22;3168;51.684;6.954;2023-04-24T14:18:23;10.90;1.00
6270;DHT22;3168;51.684;6.954;2023-04-24T14:20:48;10.50;1.00
6270;DHT22;3168;51.684;6.954;2023-04-24T14:23:14;10.60;1.00
6270;DHT22;3168;51.684;6.954;2023-04-24T14:25:40;10.30;1.00
6270;DHT22;3168;51.684;6.954;2023-04-24T14:28:06;10.40;1.00
6270;DHT22;3168;51.684;6.954;2023-04-24T14:30:32;10.30;1.00
6270;DHT22;3168;51.684;6.954;2023-04-24T14:32:57;10.50;1.00
6270;DHT22;3168;51.684;6.954;2023-04-24T14:35:23;10.50;1.00
6270;DHT22;3168;51.684;6.954;2023-04-24T14:37:49;10.70;1.00
6270;DHT22;3168;51.684;6.954;2023-04-24T14:40:15;10.70;1.00
6270;DHT22;3168;51.684;6.954;2023-04-24T14:42:41;10.80;1.00
6270;DHT22;3168;51.684;6.954;2023-04-24T14:45:07;10.80;1.00
6270;DHT22;3168;51.684;6.954;2023-04-24T14:47:33;10.70;1.00
6270;DHT22;3168;51.684;6.954;2023-04-24T14:49:59;10.80;1.00
6270;DHT22;3168;51.684;6.954;2023-04-24T14:52:25;10.80;1.00
6270;DHT22;3168;51.684;6.954;2023-04-24T14:54:51;10.70;1.00
6270;DHT22;3168;51.684;6.954;2023-04-24T14:57:17;10.50;1.00
6270;DHT22;3168;51.684;6.954;2023-04-24T14:59:43;10.30;1.00
6270;DHT22;3168;51.684;6.954;2023-04-24T15:02:09;10.20;1.00
6270;DHT22;3168;51.684;6.954;2023-04-24T15:04:35;10.30;1.00
6270;DHT22;3168;51.684;6.954;2023-04-24T15:07:00;10.20;1.00
6270;DHT22;3168;51.684;6.954;2023-04-24T15:09:26;10.20;1.00
6270;DHT22;3168;51.684;6.954;2023-04-24T15:11:52;10.40;1.00
6270;DHT22;3168;51.684;6.954;2023-04-24T15:14:18;10.40;1.00
6270;DHT22;3168;51.684;6.954;2023-04-24T15:16:44;10.40;1.00
6270;DHT22;3168;51.684;6.954;2023-04-24T15:19:10;10.60;1.00
6270;DHT22;3168;51.684;6.954;2023-04-24T15:21:36;10.60;1.00
6270;DHT22;3168;51.684;6.954;2023-04-24T15:24:02;10.50;1.00
6270;DHT22;3168;51.684;6.954;2023-04-24T15:26:28;10.50;1.00
6270;DHT22;3168;51.684;6.954;2023-04-24T15:28:54;10.30;1.00
6270;DHT22;3168;51.684;6.954;2023-04-24T15:31:20;10.10;1.00
6270;DHT22;3168;51.684;6.954;2023-04-24T15:33:46;9.90;1.00
6270;DHT22;3168;51.684;6.954;2023-04-24T15:36:12;9.70;1.00
6270;DHT22;3168;51.684;6.954;2023-04-24T15:38:38;9.40;1.00
6270;DHT22;3168;51.684;6.954;2023-04-24T15:41:04;8.90;1.00
6270;DHT22;3168;51.684;6.954;2023-04-24T15:43:30;8.80;1.00
6270;DHT22;3168;51.684;6.954;2023-04-24T15:45:56;8.70;1.00
6270;DHT22;3168;51.684;6.954;2023-04-24T15:48:22;8.50;1.00
6270;DHT22;3168;51.684;6.954;2023-04-24T15:50:48;8.40;1.00
6270;DHT22;3168;51.684;6.954;2023-04-24T15:53:14;8.40;1.00
6270;DHT22;3168;51.684;6.954;2023-04-24T15:55:39;8.60;1.00
6270;DHT22;3168;51.684;6.954;2023-04-24T15:58:06;9.00;1.00
6270;DHT22;3168;51.684;6.954;2023-04-24T16:00:32;9.00;1.00
6270;DHT22;3168;51.684;6.954;2023-04-24T16:02:59;9.40;1.00
6270;DHT22;3168;51.684;6.954;2023-04-24T16:05:23;9.70;1.00
6270;DHT22;3168;51.684;6.954;2023-04-24T16:07:49;9.90;1.00
6270;DHT22;3168;51.684;6.954;2023-04-24T16:10:15;9.90;1.00
6270;DHT22;3168;51.684;6.954;2023-04-24T16:12:42;10.00;1.00
6270;DHT22;3168;51.684;6.954;2023-04-24T16:15:08;10.00;1.00